Preview of NWS' New Version of Forecast
This preview is not operational and should not be used for support decisions.

Terminal Aerodrome Forecast (TAF)

Issued by National Weather Service (NWS)

                            
000
FTUS42 KKEY 251224 AAB
TAFEYW
TAF AMD
KEYW 251224Z 2512/2612 06008KT P6SM SCT020
     FM260000 03006KT P6SM FEW020=